PAPH Airport Information

Runway Information
Runway 05 Length 5000 ft width 100 ft
Elevation 90 ft Threshold 0 ft Heading 70
Runway 23 Length 5000 ft Width 100 ft
Elevation 95 ft Threshold 0 ft Heading 250
Runway 13 Length 4000 ft width 100 ft
Elevation 76 ft Threshold 0 ft Heading 147
Runway 31 Length 4000 ft Width 100 ft
Elevation 83 ft Threshold 0 ft Heading 327
Airport Frequencies
Type AWOS Name AWOS 3 Frequency 135.4 MHZ
Type CNTR Name ANCHORAGE Frequency 132.9 MHZ
Type CTAF Name CTAF Frequency 122.8 MHZ
Type FSS Name KENAI RDO Frequency 122 MHZ
Airport Navaids
Airport Weather Information & NOTAM
ADDS - METARS form results

(1803 UTC 16 November 2018)
Data provider http://aviationweather.gov/metar/data/
 
METAR text: PAPH 161756Z AUTO 12003KT 10SM OVC055 05/04 A2958 RMK AO2 SLP019 60000 T00500044 10061 20044 56008
Conditions at: PAPH (PORT HEIDEN , AK, US) observed 1756 UTC 16 November 2018
Temperature: 5.0°C (41°F)
Dewpoint: 4.4°C (40°F) [RH = 96%]
Pressure (altimeter): 29.58 inches Hg (1001.8 mb)
[Sea-level pressure: 1001.9 mb]
Winds: from the ESE (120 degrees) at 3 MPH (3 knots; 1.5 m/s)
Visibility: 10 or more miles (16+ km)
Ceiling: 5500 feet AGL
Clouds: overcast cloud deck at 5500 feet AGL
Weather: automated observation with no human augmentation;
there may or may not be significant weather present at this time